Time;durP1;ratioP1;P1;durP2;ratioP2;P2;SDS_P1;SDS_P2;PMS_P1;PMS_P2;Temp;Humidity;BMP_temperature;BMP_pressure;BME280_temperature;BME280_humidity;BME280_pressure;Samples;Min_cycle;Max_cycle;Signal;HPM_P1;HPM_P2
2023/04/17 03:01:03;;;;;;;22.17;19.60;;;8.60;99.90;;;;;;5643001;23;20243;-73
2023/04/17 03:03:33;;;;;;;24.53;21.93;;;8.60;99.90;;;;;;4897698;29;20183;-73
2023/04/17 03:06:00;;;;;;;24.17;21.80;;;8.60;99.90;;;;;;4897743;29;20191;-73
2023/04/17 03:08:28;;;;;;;24.90;22.23;;;8.60;99.90;;;;;;4896737;29;20208;-73
2023/04/17 03:10:55;;;;;;;27.10;24.20;;;8.60;99.90;;;;;;4897375;29;20294;-73
2023/04/17 03:13:21;;;;;;;31.77;28.53;;;8.60;99.90;;;;;;4914914;29;20183;-72
2023/04/17 03:15:47;;;;;;;27.37;24.57;;;8.60;99.90;;;;;;4914918;29;20187;-74
2023/04/17 03:18:12;;;;;;;23.03;20.60;;;8.60;99.90;;;;;;4913800;29;20266;-74
2023/04/17 03:20:38;;;;;;;20.53;16.93;;;8.50;99.90;;;;;;4914569;29;20617;-74
2023/04/17 03:23:04;;;;;;;23.47;17.07;;;8.50;99.90;;;;;;4914227;29;20244;-74
2023/04/17 03:25:30;;;;;;;21.23;16.90;;;8.60;99.90;;;;;;4897580;29;20220;-74
2023/04/17 03:27:55;;;;;;;20.30;16.80;;;8.60;99.90;;;;;;4897045;29;20193;-74
2023/04/17 03:30:21;;;;;;;20.73;17.53;;;8.60;99.90;;;;;;4896748;29;20274;-74
2023/04/17 03:32:47;;;;;;;25.13;18.27;;;8.60;99.90;;;;;;4897149;29;20187;-75
2023/04/17 03:35:13;;;;;;;24.30;21.77;;;8.60;99.90;;;;;;4914427;29;20274;-74
2023/04/17 03:37:38;;;;;;;24.17;21.63;;;8.60;99.90;;;;;;4913572;29;20176;-74
2023/04/17 03:40:05;;;;;;;26.53;23.70;;;8.60;99.90;;;;;;4897578;29;20282;-74
2023/04/17 03:42:31;;;;;;;24.03;21.53;;;8.60;99.90;;;;;;4897331;29;20201;-74
2023/04/17 03:44:56;;;;;;;26.90;23.53;;;8.60;99.90;;;;;;4914351;29;20210;-75
2023/04/17 03:47:22;;;;;;;25.47;22.97;;;8.60;99.90;;;;;;4916772;29;20573;-75
2023/04/17 03:49:48;;;;;;;26.73;23.93;;;8.60;99.90;;;;;;4917746;29;20222;-75
2023/04/17 03:52:14;;;;;;;24.77;22.03;;;8.60;99.90;;;;;;4917792;29;20207;-75
2023/04/17 03:54:40;;;;;;;25.20;20.83;;;8.60;99.90;;;;;;4917638;29;20182;-75
2023/04/17 03:57:05;;;;;;;21.67;17.63;;;8.60;99.90;;;;;;4900258;29;20179;-74
2023/04/17 03:59:32;;;;;;;21.00;17.07;;;8.60;99.90;;;;;;4917381;29;20269;-74
2023/04/17 04:01:57;;;;;;;19.87;16.00;;;8.60;99.90;;;;;;4917738;29;20220;-74
2023/04/17 04:04:24;;;;;;;21.10;17.13;;;8.60;99.90;;;;;;4900970;29;20270;-75
2023/04/17 04:06:49;;;;;;;19.70;17.70;;;8.60;99.90;;;;;;4900881;29;20183;-74
2023/04/17 04:09:15;;;;;;;22.20;19.90;;;8.60;99.90;;;;;;4917185;29;20701;-74
2023/04/17 04:11:41;;;;;;;24.40;21.97;;;8.60;99.90;;;;;;4900614;29;20294;-75
2023/04/17 04:14:06;;;;;;;25.57;22.70;;;8.70;99.90;;;;;;4917683;29;20573;-76
2023/04/17 04:16:32;;;;;;;23.60;20.77;;;8.70;99.90;;;;;;4900898;29;20205;-75
2023/04/17 04:18:58;;;;;;;21.87;19.50;;;8.70;99.90;;;;;;4917653;29;20243;-74
2023/04/17 04:21:24;;;;;;;20.67;17.83;;;8.70;99.90;;;;;;4917172;29;20223;-73
2023/04/17 04:23:50;;;;;;;22.87;19.00;;;8.70;99.90;;;;;;4908886;29;20191;-78
2023/04/17 04:26:15;;;;;;;24.60;21.90;;;8.70;99.90;;;;;;4901692;29;20752;-76
2023/04/17 04:28:42;;;;;;;25.03;22.47;;;8.70;99.90;;;;;;4902771;29;20207;-77
2023/04/17 04:31:08;;;;;;;22.10;18.03;;;8.70;99.90;;;;;;4918765;29;20194;-77
2023/04/17 04:33:34;;;;;;;20.40;16.97;;;8.70;99.90;;;;;;4936319;29;20197;-77
2023/04/17 04:36:00;;;;;;;23.30;17.27;;;8.70;99.90;;;;;;4918939;29;20214;-77
2023/04/17 04:38:31;;;;;;;18.90;16.67;;;8.70;99.90;;;;;;4903551;29;20606;-77
2023/04/17 04:41:00;;;;;;;20.93;17.03;;;8.70;99.90;;;;;;4918184;29;20207;-77
2023/04/17 04:43:32;;;;;;;22.40;16.70;;;8.70;99.90;;;;;;4901909;29;20238;-77
2023/04/17 04:45:58;;;;;;;20.77;16.90;;;8.70;99.90;;;;;;4899834;29;20183;-77
2023/04/17 04:48:24;;;;;;;18.77;16.77;;;8.80;99.90;;;;;;4899245;29;20278;-76
2023/04/17 04:50:49;;;;;;;20.43;17.53;;;8.70;99.90;;;;;;4900474;29;20256;-76
2023/04/17 04:53:15;;;;;;;21.17;18.77;;;8.70;99.90;;;;;;4917365;29;20187;-76
2023/04/17 04:55:41;;;;;;;25.27;19.40;;;8.80;99.90;;;;;;4900333;29;20188;-76
2023/04/17 04:58:07;;;;;;;27.07;21.17;;;8.70;99.90;;;;;;4899809;29;20555;-77
2023/04/17 05:00:32;;;;;;;28.80;21.73;;;8.70;99.90;;;;;;4916727;29;20208;-76
2023/04/17 05:02:58;;;;;;;23.73;19.17;;;8.80;99.90;;;;;;4900451;29;20324;-76
2023/04/17 05:05:24;;;;;;;24.47;19.10;;;8.70;99.90;;;;;;4901736;29;20212;-77
2023/04/17 05:07:52;;;;;;;22.03;17.67;;;8.80;99.90;;;;;;4899871;29;20186;-76
2023/04/17 05:10:18;;;;;;;21.70;18.53;;;8.80;99.90;;;;;;4900518;29;20669;-76
2023/04/17 05:12:43;;;;;;;21.03;17.07;;;8.80;99.90;;;;;;4900534;29;20187;-77
2023/04/17 05:15:09;;;;;;;21.07;18.00;;;8.80;99.90;;;;;;4916901;29;20655;-77
2023/04/17 05:17:36;;;;;;;18.77;16.80;;;8.80;99.90;;;;;;4902101;29;20171;-76
2023/04/17 05:20:05;;;;;;;19.97;16.43;;;8.80;99.90;;;;;;4919274;29;20190;-77
2023/04/17 05:22:31;;;;;;;22.37;17.73;;;8.70;99.90;;;;;;4937190;29;20238;-76
2023/04/17 05:24:57;;;;;;;24.10;18.57;;;8.80;99.90;;;;;;4910826;29;20202;-77
2023/04/17 05:27:25;;;;;;;24.67;20.77;;;8.80;99.90;;;;;;4904828;29;20183;-77
2023/04/17 05:29:51;;;;;;;22.37;19.67;;;8.80;99.90;;;;;;4921941;29;20217;-79
2023/04/17 05:32:17;;;;;;;21.40;19.03;;;8.80;99.90;;;;;;4920267;29;20746;-77
2023/04/17 05:34:45;;;;;;;22.97;18.83;;;8.80;99.90;;;;;;4916457;29;20306;-77
2023/04/17 05:37:10;;;;;;;24.70;19.33;;;8.80;99.90;;;;;;4916601;29;20195;-77
2023/04/17 05:39:36;;;;;;;27.93;19.40;;;8.80;99.90;;;;;;4915661;29;20187;-77
2023/04/17 05:42:02;;;;;;;23.07;18.33;;;8.80;99.90;;;;;;4915630;29;20203;-78
2023/04/17 05:44:29;;;;;;;24.37;18.83;;;8.80;99.90;;;;;;4918198;29;20265;-77
2023/04/17 05:47:00;;;;;;;19.40;17.30;;;8.80;99.90;;;;;;4900526;29;20221;-77
2023/04/17 05:49:26;;;;;;;20.53;17.17;;;8.80;99.90;;;;;;4899640;29;20243;-76
2023/04/17 05:51:52;;;;;;;23.33;17.87;;;8.90;99.90;;;;;;4900226;29;20242;-77
2023/04/17 05:54:18;;;;;;;23.70;18.53;;;8.80;99.90;;;;;;4917483;29;20285;-76
2023/04/17 05:56:44;;;;;;;24.47;18.40;;;8.80;99.90;;;;;;4900013;29;20183;-76
2023/04/17 05:59:10;;;;;;;23.43;17.53;;;8.90;99.90;;;;;;4915959;29;20199;-77
2023/04/17 06:01:36;;;;;;;24.20;18.27;;;8.90;99.90;;;;;;4916625;29;20214;-77
2023/04/17 06:04:01;;;;;;;22.13;17.10;;;8.90;99.90;;;;;;4916530;29;20191;-76
2023/04/17 06:06:27;;;;;;;23.03;17.43;;;8.90;99.90;;;;;;4899612;29;20277;-76
2023/04/17 06:08:53;;;;;;;21.97;16.97;;;8.90;99.90;;;;;;4915361;29;20609;-77
2023/04/17 06:11:20;;;;;;;22.43;17.33;;;8.90;99.90;;;;;;4896236;29;20208;-76
2023/04/17 06:13:46;;;;;;;22.13;16.97;;;8.90;99.90;;;;;;4897523;29;20194;-77
2023/04/17 06:16:12;;;;;;;20.50;17.53;;;8.90;99.90;;;;;;4896286;29;20172;-76
2023/04/17 06:18:39;;;;;;;26.50;17.53;;;8.90;99.90;;;;;;4910012;29;20803;-76
2023/04/17 06:21:06;;;;;;;24.37;21.87;;;9.00;99.90;;;;;;4899259;29;20218;-76
2023/04/17 06:23:32;;;;;;;46.90;43.57;;;9.00;99.90;;;;;;4916420;29;20229;-76
2023/04/17 06:25:58;;;;;;;51.43;47.57;;;9.10;99.90;;;;;;4916549;29;20218;-76
2023/04/17 06:28:24;;;;;;;85.80;79.77;;;9.10;99.90;;;;;;4898981;29;20305;-76
2023/04/17 06:30:49;;;;;;;95.07;89.03;;;9.10;99.90;;;;;;4899380;29;20671;-77
2023/04/17 06:33:15;;;;;;;99.80;93.80;;;9.10;99.90;;;;;;4899219;29;20213;-77
2023/04/17 06:35:41;;;;;;;116.50;109.40;;;9.10;99.90;;;;;;4915913;29;20234;-76
2023/04/17 06:38:07;;;;;;;105.57;99.20;;;9.10;99.90;;;;;;4915381;29;20186;-76
2023/04/17 06:40:33;;;;;;;100.43;94.00;;;9.10;99.90;;;;;;4898644;29;20731;-75
2023/04/17 06:42:59;;;;;;;99.07;92.87;;;9.20;99.90;;;;;;4898911;29;20282;-76
2023/04/17 06:45:25;;;;;;;96.27;90.43;;;9.20;99.90;;;;;;4917151;29;20190;-75
2023/04/17 06:47:50;;;;;;;82.57;76.83;;;9.20;99.90;;;;;;4917629;29;20179;-75
2023/04/17 06:50:17;;;;;;;66.03;61.47;;;9.20;99.90;;;;;;4902063;29;20198;-75
2023/04/17 06:52:43;;;;;;;64.10;59.67;;;9.20;99.90;;;;;;4899787;29;20194;-75
2023/04/17 06:55:09;;;;;;;70.53;66.03;;;9.20;99.90;;;;;;4915517;29;20655;-76
2023/04/17 06:57:35;;;;;;;92.37;86.73;;;9.30;99.90;;;;;;4894676;29;20197;-76
2023/04/17 07:00:02;;;;;;;112.13;105.40;;;9.30;99.90;;;;;;4895446;29;20259;-76
2023/04/17 07:02:28;;;;;;;104.77;98.23;;;9.30;99.90;;;;;;4896350;29;20271;-76
2023/04/17 07:04:53;;;;;;;109.13;102.50;;;9.30;99.90;;;;;;4896228;29;20651;-76
2023/04/17 07:07:20;;;;;;;108.60;102.07;;;9.40;99.90;;;;;;4897938;29;20275;-76
2023/04/17 07:09:47;;;;;;;104.50;98.60;;;9.40;99.90;;;;;;4898200;29;20280;-76
2023/04/17 07:12:16;;;;;;;66.47;61.97;;;9.40;99.90;;;;;;4898248;29;20211;-76
2023/04/17 07:14:41;;;;;;;83.20;78.40;;;9.40;99.90;;;;;;4915330;29;20179;-76
2023/04/17 07:17:07;;;;;;;90.70;85.30;;;9.40;99.90;;;;;;4899264;29;20541;-75
2023/04/17 07:19:34;;;;;;;61.80;57.93;;;9.40;99.90;;;;;;4898268;29;20205;-75
2023/04/17 07:22:00;;;;;;;48.10;44.57;;;9.40;99.90;;;;;;4898253;29;20219;-76
2023/04/17 07:24:26;;;;;;;41.53;38.73;;;9.50;99.90;;;;;;4915164;29;20265;-76
2023/04/17 07:26:51;;;;;;;41.73;38.93;;;9.50;99.90;;;;;;4897938;29;20602;-76
2023/04/17 07:29:17;;;;;;;58.93;54.87;;;9.50;99.90;;;;;;4915189;29;20782;-78
2023/04/17 07:31:44;;;;;;;34.73;32.50;;;9.70;99.90;;;;;;4898629;29;20267;-76
2023/04/17 07:34:10;;;;;;;25.77;23.73;;;9.70;99.90;;;;;;4898274;29;20222;-76
2023/04/17 07:36:36;;;;;;;24.53;22.43;;;9.70;99.90;;;;;;4897549;29;20206;-76
2023/04/17 07:39:02;;;;;;;26.20;24.00;;;9.80;99.90;;;;;;4897649;29;20179;-76
2023/04/17 07:41:27;;;;;;;25.40;22.77;;;9.90;99.90;;;;;;4914945;29;20589;-76
2023/04/17 07:43:53;;;;;;;24.27;22.07;;;9.90;99.90;;;;;;4914711;29;20190;-76
2023/04/17 07:46:19;;;;;;;25.80;23.30;;;9.90;99.90;;;;;;4897692;29;20198;-77
2023/04/17 07:48:45;;;;;;;30.00;27.67;;;10.00;99.90;;;;;;4914295;29;20237;-76
2023/04/17 07:51:11;;;;;;;26.80;24.53;;;10.00;99.90;;;;;;4897682;29;20222;-76
2023/04/17 07:53:37;;;;;;;26.00;24.20;;;10.00;99.90;;;;;;4924541;29;20268;-76
2023/04/17 07:56:04;;;;;;;28.57;26.57;;;10.00;99.90;;;;;;4897047;29;20215;-76
2023/04/17 07:58:30;;;;;;;32.63;30.67;;;10.00;99.90;;;;;;4913247;29;20183;-77
2023/04/17 08:00:56;;;;;;;38.00;35.77;;;10.20;99.90;;;;;;4914377;29;20230;-76
2023/04/17 08:03:22;;;;;;;26.53;24.80;;;10.20;99.90;;;;;;4897826;29;20179;-77
2023/04/17 08:05:50;;;;;;;18.30;17.00;;;10.30;99.90;;;;;;4897752;29;20246;-77
2023/04/17 08:08:17;;;;;;;15.60;14.50;;;10.40;99.90;;;;;;4898451;29;20210;-77
2023/04/17 08:10:42;;;;;;;13.43;12.33;;;10.50;99.90;;;;;;4912029;29;20741;-77
2023/04/17 08:13:08;;;;;;;19.90;18.60;;;10.60;99.90;;;;;;4898290;29;20186;-77
2023/04/17 08:15:38;;;;;;;32.07;30.03;;;10.60;99.90;;;;;;4898275;29;20722;-78
2023/04/17 08:18:03;;;;;;;33.37;31.30;;;10.60;99.90;;;;;;4898055;29;20266;-77
2023/04/17 08:20:29;;;;;;;36.23;34.07;;;10.60;99.90;;;;;;4914474;29;20182;-77
2023/04/17 08:22:55;;;;;;;34.40;32.43;;;10.60;99.90;;;;;;4914844;29;20204;-76
2023/04/17 08:25:21;;;;;;;34.43;32.37;;;10.40;99.90;;;;;;4915494;29;20183;-77
2023/04/17 08:27:46;;;;;;;106.90;101.40;;;10.20;99.90;;;;;;4915629;29;20190;-78
2023/04/17 08:30:14;;;;;;;39.70;37.33;;;10.20;99.90;;;;;;4917251;29;20239;-78
2023/04/17 08:32:42;;;;;;;47.20;44.77;;;10.20;99.90;;;;;;4910432;29;20535;-78
2023/04/17 08:35:12;;;;;;;76.23;72.20;;;10.30;99.90;;;;;;4928314;29;20218;-78
2023/04/17 08:37:39;;;;;;;39.30;37.23;;;10.30;99.90;;;;;;4926035;29;20261;-77
2023/04/17 08:40:08;;;;;;;33.00;31.13;;;10.40;99.90;;;;;;4926751;29;20310;-77
2023/04/17 08:42:41;;;;;;;25.73;24.30;;;10.40;99.90;;;;;;4907354;29;20372;-77
2023/04/17 08:45:11;;;;;;;29.67;27.87;;;10.50;99.90;;;;;;4921726;29;20678;-78
2023/04/17 08:47:42;;;;;;;36.13;34.27;;;10.50;99.90;;;;;;4917869;29;20191;-78
2023/04/17 08:50:09;;;;;;;33.30;31.50;;;10.40;99.90;;;;;;4918962;29;20306;-78
2023/04/17 08:52:43;;;;;;;20.60;19.37;;;10.40;99.90;;;;;;4924151;29;20194;-78
2023/04/17 08:55:12;;;;;;;21.03;19.67;;;10.40;99.90;;;;;;4919899;29;20238;-78
2023/04/17 08:58:04;;;;;;;29.90;28.17;;;10.40;99.90;;;;;;4909106;29;20183;-78
2023/04/17 09:00:41;;;;;;;30.73;28.87;;;10.30;99.90;;;;;;4918323;29;20187;-77
2023/04/17 09:03:11;;;;;;;32.53;30.50;;;10.20;99.90;;;;;;4903509;29;20201;-78
2023/04/17 09:05:41;;;;;;;21.60;20.20;;;10.20;99.90;;;;;;4901661;29;20198;-78
2023/04/17 09:08:19;;;;;;;14.40;13.27;;;10.20;99.90;;;;;;4918869;29;20186;-78
2023/04/17 09:10:53;;;;;;;14.57;13.30;;;10.30;99.90;;;;;;4906256;29;20209;-78
2023/04/17 09:13:21;;;;;;;14.77;13.37;;;10.50;99.90;;;;;;4907350;29;20239;-77
2023/04/17 09:16:03;;;;;;;20.23;18.73;;;10.50;99.90;;;;;;4954255;23;20313;-74
2023/04/17 09:18:30;;;;;;;25.93;24.00;;;10.50;99.90;;;;;;4933951;29;20198;-74
2023/04/17 09:20:58;;;;;;;38.67;36.20;;;10.60;99.90;;;;;;4919281;29;20186;-74
2023/04/17 09:23:27;;;;;;;45.40;42.60;;;10.70;99.90;;;;;;4936014;29;20186;-74
2023/04/17 09:26:08;;;;;;;18.13;16.73;;;10.90;99.90;;;;;;4901321;29;20766;-74
2023/04/17 09:28:40;;;;;;;18.60;17.20;;;11.10;99.90;;;;;;4883147;29;20672;-74
2023/04/17 09:31:18;;;;;;;16.40;14.90;;;11.40;99.90;;;;;;4917004;29;20754;-73
2023/04/17 09:34:00;;;;;;;16.37;14.97;;;11.50;99.90;;;;;;4926133;29;20183;-74
2023/04/17 09:36:29;;;;;;;13.40;12.10;;;11.60;99.90;;;;;;4928076;29;20183;-74
2023/04/17 09:38:55;;;;;;;19.77;18.37;;;11.60;99.90;;;;;;4927978;29;20217;-74
2023/04/17 09:41:26;;;;;;;16.80;15.30;;;11.50;99.90;;;;;;4908595;29;20194;-74
2023/04/17 09:44:04;;;;;;;16.73;15.23;;;11.30;99.90;;;;;;4922991;29;20195;-74
2023/04/17 09:46:47;;;;;;;18.23;16.93;;;11.00;99.90;;;;;;4926174;29;20220;-74
2023/04/17 09:49:28;;;;;;;14.57;13.23;;;10.70;99.90;;;;;;4908431;29;20207;-75
2023/04/17 09:51:56;;;;;;;21.83;20.07;;;10.70;99.90;;;;;;4924352;29;20271;-74
2023/04/17 09:54:23;;;;;;;19.83;18.23;;;10.80;99.90;;;;;;4935607;29;20202;-74
2023/04/17 09:56:51;;;;;;;18.67;17.30;;;10.90;99.90;;;;;;4915770;29;20187;-72
2023/04/17 09:59:17;;;;;;;18.27;16.90;;;11.00;99.90;;;;;;4916202;29;20217;-72
2023/04/17 10:01:43;;;;;;;14.50;13.20;;;11.20;99.90;;;;;;4899208;29;20179;-73
2023/04/17 10:04:10;;;;;;;18.53;17.13;;;11.50;99.90;;;;;;4915779;29;20561;-73
2023/04/17 10:06:36;;;;;;;52.70;48.00;;;11.70;99.90;;;;;;4881707;29;20195;-71
2023/04/17 10:09:04;;;;;;;67.97;64.37;;;11.90;99.90;;;;;;4900205;29;20221;-74
2023/04/17 10:11:36;;;;;;;91.73;38.73;;;12.00;99.90;;;;;;4905817;29;20720;-74
2023/04/17 10:14:26;;;;;;;31.63;28.07;;;12.20;99.90;;;;;;4882006;29;20211;-73
2023/04/17 10:16:53;;;;;;;30.77;29.00;;;12.50;99.90;;;;;;4892364;29;20283;-74
2023/04/17 10:19:32;;;;;;;26.63;25.07;;;12.80;99.90;;;;;;4897403;29;20194;-73
2023/04/17 10:22:19;;;;;;;24.53;22.90;;;13.00;99.90;;;;;;4896886;29;20184;-73
2023/04/17 10:24:46;;;;;;;13.83;12.83;;;13.20;99.90;;;;;;4881758;29;20306;-75
2023/04/17 10:27:23;;;;;;;15.30;14.33;;;13.20;99.90;;;;;;4915549;29;20194;-72
2023/04/17 10:29:57;;;;;;;17.20;16.10;;;13.20;99.90;;;;;;4915684;29;20271;-73
2023/04/17 10:32:24;;;;;;;12.00;11.20;;;13.30;99.90;;;;;;4915360;29;20199;-74
2023/04/17 10:35:00;;;;;;;11.13;10.43;;;13.50;99.90;;;;;;4895639;29;20578;-75
2023/04/17 10:37:51;;;;;;;10.57;9.67;;;13.70;99.90;;;;;;4880601;29;20183;-74
2023/04/17 10:40:22;;;;;;;9.80;8.90;;;13.90;99.90;;;;;;4879765;29;20199;-74
2023/04/17 10:43:12;;;;;;;9.27;8.43;;;14.20;99.90;;;;;;4896496;29;20198;-74
2023/04/17 10:45:59;;;;;;;8.43;7.93;;;14.60;99.90;;;;;;4888353;29;20640;-74
2023/04/17 10:48:35;;;;;;;9.20;8.53;;;15.00;99.90;;;;;;4914753;29;20218;-74
2023/04/17 10:51:20;;;;;;;7.37;6.87;;;15.50;99.90;;;;;;4915740;29;20242;-72
2023/04/17 10:53:48;;;;;;;6.53;6.13;;;15.90;99.90;;;;;;4912611;29;20182;-74
2023/04/17 10:56:25;;;;;;;8.40;7.83;;;15.80;99.90;;;;;;4901129;29;20179;-73
2023/04/17 10:59:00;;;;;;;7.50;7.00;;;15.80;99.90;;;;;;4913962;29;20193;-73
2023/04/17 11:01:33;;;;;;;9.83;9.13;;;16.20;99.90;;;;;;4916812;29;20190;-73
2023/04/17 11:03:59;;;;;;;10.13;9.47;;;16.50;99.90;;;;;;4916992;29;20216;-75
2023/04/17 11:06:30;;;;;;;11.83;11.13;;;16.40;99.90;;;;;;4901234;29;20191;-73
2023/04/17 11:08:57;;;;;;;13.03;12.33;;;16.70;99.90;;;;;;4905367;29;20210;-73
2023/04/17 11:11:24;;;;;;;13.93;13.13;;;16.60;99.90;;;;;;4915495;29;20188;-73
2023/04/17 11:13:50;;;;;;;14.20;13.30;;;16.70;99.90;;;;;;4914578;29;20183;-73
2023/04/17 11:16:19;;;;;;;26.10;24.73;;;16.60;99.90;;;;;;4903427;29;20191;-73
2023/04/17 11:18:46;;;;;;;32.47;30.83;;;16.50;99.90;;;;;;4898247;29;20195;-74
2023/04/17 11:21:15;;;;;;;41.43;39.40;;;16.60;99.90;;;;;;4888363;29;20195;-75
2023/04/17 11:23:53;;;;;;;48.07;45.67;;;16.70;99.90;;;;;;4899355;29;20190;-77
2023/04/17 11:26:19;;;;;;;44.63;42.23;;;16.50;99.90;;;;;;4908697;29;20194;-79
2023/04/17 11:28:46;;;;;;;36.00;34.20;;;16.30;99.90;;;;;;4899406;29;20311;-76
2023/04/17 11:31:12;;;;;;;52.47;49.70;;;16.30;99.90;;;;;;4881128;29;20198;-76
2023/04/17 11:33:39;;;;;;;15.53;14.67;;;15.80;99.90;;;;;;4897151;29;20225;-77
2023/04/17 11:36:06;;;;;;;7.93;7.27;;;15.60;99.90;;;;;;4901929;29;20218;-76
2023/04/17 11:38:32;;;;;;;6.47;6.07;;;15.50;99.90;;;;;;4913562;29;20189;-75
2023/04/17 11:41:00;;;;;;;7.67;7.27;;;15.40;99.90;;;;;;4918188;29;20190;-76
2023/04/17 11:43:28;;;;;;;7.30;6.90;;;15.60;99.90;;;;;;4939346;29;20174;-77
2023/04/17 11:45:57;;;;;;;10.47;9.73;;;16.10;99.90;;;;;;4911125;29;20223;-77
2023/04/17 11:48:26;;;;;;;26.13;24.83;;;16.40;99.90;;;;;;4895684;29;20302;-76
2023/04/17 11:50:56;;;;;;;38.10;36.10;;;16.50;99.90;;;;;;4895642;29;20250;-76
2023/04/17 11:53:23;;;;;;;6.17;5.77;;;15.90;99.90;;;;;;4897415;29;20186;-76
2023/04/17 11:56:18;;;;;;;5.77;5.37;;;15.10;99.90;;;;;;4906821;29;20658;-76
2023/04/17 11:58:55;;;;;;;27.63;26.17;;;13.80;99.90;;;;;;4904321;29;20197;-76
2023/04/17 12:01:23;;;;;;;46.80;44.30;;;13.10;99.90;;;;;;4914830;29;20293;-76
2023/04/17 12:03:49;;;;;;;10.73;9.93;;;12.80;99.90;;;;;;4913693;29;20233;-77
2023/04/17 12:06:16;;;;;;;16.67;15.67;;;12.80;99.90;;;;;;4898824;29;20195;-76
2023/04/17 12:08:45;;;;;;;31.03;29.07;;;12.70;99.90;;;;;;4900944;29;20672;-76
2023/04/17 12:11:30;;;;;;;22.97;21.43;;;12.70;99.90;;;;;;4900236;29;20242;-73
2023/04/17 12:13:56;;;;;;;13.43;12.23;;;12.60;99.90;;;;;;4881929;29;20544;-70
2023/04/17 12:16:23;;;;;;;11.13;10.20;;;12.60;99.90;;;;;;4911185;29;20194;-76
2023/04/17 12:18:49;;;;;;;24.20;22.60;;;12.60;99.90;;;;;;4917151;29;20555;-76
2023/04/17 12:21:15;;;;;;;18.70;17.43;;;12.60;99.90;;;;;;4900738;29;20183;-74
2023/04/17 12:23:41;;;;;;;10.43;9.63;;;12.50;99.90;;;;;;4927582;29;20187;-75
2023/04/17 12:26:08;;;;;;;11.40;10.40;;;12.60;99.90;;;;;;4913841;29;20191;-77
2023/04/17 12:28:34;;;;;;;10.70;9.63;;;12.80;99.90;;;;;;4882796;29;20302;-74
2023/04/17 12:31:00;;;;;;;13.40;12.40;;;13.00;99.90;;;;;;4882581;29;20184;-75
2023/04/17 12:33:26;;;;;;;13.80;12.73;;;13.30;99.90;;;;;;4899250;29;20180;-75
2023/04/17 12:35:51;;;;;;;12.33;11.30;;;13.60;99.90;;;;;;4898902;29;20206;-75
2023/04/17 12:38:18;;;;;;;10.53;9.60;;;14.20;99.90;;;;;;4898537;29;20653;-75
2023/04/17 12:40:44;;;;;;;25.13;23.50;;;14.90;99.90;;;;;;4899104;29;20191;-76
2023/04/17 12:43:11;;;;;;;23.93;22.03;;;15.10;99.90;;;;;;4898955;29;20592;-76
2023/04/17 12:45:37;;;;;;;27.80;25.60;;;14.70;99.90;;;;;;4882252;29;20616;-76
2023/04/17 12:48:04;;;;;;;24.57;23.03;;;14.10;99.90;;;;;;4898352;29;20184;-76
2023/04/17 12:50:30;;;;;;;27.90;25.90;;;13.90;99.90;;;;;;4914125;29;20190;-75
2023/04/17 12:52:56;;;;;;;22.73;21.37;;;13.50;99.90;;;;;;4931176;29;20193;-76
2023/04/17 12:55:24;;;;;;;19.33;18.03;;;13.40;99.90;;;;;;4919246;29;20206;-75
2023/04/17 12:57:49;;;;;;;23.50;22.20;;;13.40;99.90;;;;;;4935108;29;20218;-76
2023/04/17 13:00:16;;;;;;;34.97;32.97;;;13.40;99.90;;;;;;4919651;29;20217;-75
2023/04/17 13:02:41;;;;;;;40.07;37.93;;;13.50;99.90;;;;;;4924732;29;20187;-76
2023/04/17 13:05:07;;;;;;;19.47;18.20;;;13.70;99.90;;;;;;4900950;29;20206;-75
2023/04/17 13:07:33;;;;;;;8.00;7.30;;;13.80;99.90;;;;;;4900439;29;20227;-76
2023/04/17 13:09:59;;;;;;;9.80;8.83;;;14.00;99.90;;;;;;4917412;29;20206;-77
2023/04/17 13:12:25;;;;;;;8.27;7.57;;;14.20;99.90;;;;;;4908873;29;20192;-76
2023/04/17 13:14:51;;;;;;;8.50;7.90;;;14.80;99.90;;;;;;4881300;29;20251;-76
2023/04/17 13:17:17;;;;;;;8.17;7.57;;;14.90;99.90;;;;;;4881635;29;20184;-75
2023/04/17 13:19:43;;;;;;;8.67;8.07;;;15.10;99.90;;;;;;4881169;29;20195;-75
2023/04/17 13:22:09;;;;;;;9.47;8.87;;;15.20;99.90;;;;;;4886798;29;20537;-75
2023/04/17 13:24:35;;;;;;;11.83;11.03;;;15.10;99.90;;;;;;4916975;29;20209;-75
2023/04/17 13:27:02;;;;;;;10.50;9.90;;;14.70;99.90;;;;;;4899944;29;20234;-75
2023/04/17 13:29:28;;;;;;;7.40;6.70;;;14.20;99.90;;;;;;4893174;29;20223;-75
2023/04/17 13:31:54;;;;;;;7.33;6.73;;;13.90;99.90;;;;;;4903173;29;20197;-74
2023/04/17 13:34:19;;;;;;;7.13;6.53;;;13.60;99.90;;;;;;4916311;29;20727;-74
2023/04/17 13:36:46;;;;;;;9.30;8.50;;;13.30;99.90;;;;;;4934015;29;20277;-74
2023/04/17 13:39:12;;;;;;;46.70;44.20;;;12.80;99.90;;;;;;4940523;29;20269;-74
2023/04/17 13:41:38;;;;;;;11.13;9.97;;;12.50;99.90;;;;;;4940581;29;20194;-74
2023/04/17 13:44:04;;;;;;;8.40;7.70;;;12.30;99.90;;;;;;4915815;29;20199;-74
2023/04/17 13:46:32;;;;;;;8.73;7.97;;;12.20;99.90;;;;;;4919625;29;20194;-75
2023/04/17 13:48:58;;;;;;;31.00;29.00;;;12.00;99.90;;;;;;4916883;29;20221;-75
2023/04/17 13:51:25;;;;;;;15.93;14.83;;;11.90;99.90;;;;;;4935327;29;20178;-75
2023/04/17 13:53:51;;;;;;;9.83;8.93;;;11.90;99.90;;;;;;4898881;29;20206;-80
2023/04/17 13:56:18;;;;;;;9.50;8.70;;;11.90;99.90;;;;;;4899248;29;20187;-76
2023/04/17 13:58:44;;;;;;;11.40;9.73;;;12.00;99.90;;;;;;4898852;29;20191;-76
2023/04/17 14:01:11;;;;;;;9.33;8.53;;;12.10;99.90;;;;;;4916093;29;20191;-76
2023/04/17 14:03:37;;;;;;;11.77;10.97;;;12.30;99.90;;;;;;4899567;29;20239;-77
2023/04/17 14:06:03;;;;;;;16.53;15.43;;;12.30;99.90;;;;;;4897072;29;20207;-77
2023/04/17 14:08:29;;;;;;;11.43;10.57;;;12.50;99.90;;;;;;4880604;29;20753;-75
2023/04/17 14:10:55;;;;;;;13.20;11.90;;;12.60;99.90;;;;;;4913784;29;20189;-75
2023/04/17 14:13:21;;;;;;;52.67;49.73;;;12.70;99.90;;;;;;4919922;29;20666;-74
2023/04/17 14:15:46;;;;;;;26.10;24.50;;;12.70;99.90;;;;;;4910240;29;20234;-75
2023/04/17 14:18:12;;;;;;;25.40;23.97;;;12.50;99.90;;;;;;4900068;29;20225;-75
2023/04/17 14:20:38;;;;;;;29.13;27.43;;;12.40;99.90;;;;;;4918838;29;20182;-74
2023/04/17 14:23:04;;;;;;;31.87;29.93;;;12.40;99.90;;;;;;4921563;29;20187;-75
2023/04/17 14:25:30;;;;;;;20.57;19.37;;;12.50;99.90;;;;;;4915099;29;20290;-75
2023/04/17 14:27:55;;;;;;;17.30;16.07;;;12.50;99.90;;;;;;4918898;29;20183;-76
2023/04/17 14:30:21;;;;;;;16.73;15.63;;;12.50;99.90;;;;;;4898124;29;20213;-76
2023/04/17 14:32:48;;;;;;;17.47;16.30;;;12.60;99.90;;;;;;4898904;29;20187;-76
2023/04/17 14:35:14;;;;;;;10.80;10.03;;;12.70;99.90;;;;;;4897502;29;20297;-75
2023/04/17 14:37:40;;;;;;;11.63;10.53;;;12.90;99.90;;;;;;4914525;29;20278;-76
2023/04/17 14:40:06;;;;;;;10.30;9.43;;;13.00;99.90;;;;;;4898159;29;20198;-71
2023/04/17 14:42:32;;;;;;;12.53;11.47;;;13.10;99.90;;;;;;4908442;29;20275;-77
2023/04/17 14:44:58;;;;;;;9.13;8.43;;;13.30;99.90;;;;;;4896223;29;20307;-76
2023/04/17 14:47:24;;;;;;;8.27;7.67;;;13.40;99.90;;;;;;4896259;29;20282;-76
2023/04/17 14:49:49;;;;;;;8.93;8.13;;;13.50;99.90;;;;;;4896645;29;20215;-76
2023/04/17 14:52:15;;;;;;;9.03;7.90;;;13.50;99.90;;;;;;4900971;29;20207;-77
2023/04/17 14:54:41;;;;;;;8.13;7.33;;;13.30;99.90;;;;;;4915260;29;20713;-77
2023/04/17 14:57:07;;;;;;;9.00;8.10;;;13.10;99.90;;;;;;4915261;29;20261;-77
2023/04/17 14:59:33;;;;;;;7.80;7.10;;;13.20;99.90;;;;;;4898553;29;20660;-76
2023/04/17 15:01:58;;;;;;;8.83;8.03;;;13.30;99.90;;;;;;4896464;29;20198;-77
2023/04/17 15:04:24;;;;;;;7.43;6.93;;;13.30;99.90;;;;;;4896454;29;20581;-77
2023/04/17 15:06:50;;;;;;;8.70;7.90;;;13.30;99.90;;;;;;4896457;29;20184;-77
2023/04/17 15:09:16;;;;;;;8.63;7.40;;;13.40;99.90;;;;;;4896570;29;20688;-77
2023/04/17 15:11:42;;;;;;;7.77;7.07;;;13.60;99.90;;;;;;4896722;29;20186;-77
2023/04/17 15:14:07;;;;;;;7.43;6.90;;;13.90;99.90;;;;;;4919414;23;20215;31
2023/04/17 15:16:33;;;;;;;8.30;7.70;;;14.10;99.90;;;;;;4918856;29;20592;-78
2023/04/17 15:18:59;;;;;;;9.93;9.17;;;14.30;99.90;;;;;;4904289;29;20186;-80
2023/04/17 15:21:25;;;;;;;14.10;13.20;;;14.40;99.90;;;;;;4907380;29;20190;-77
2023/04/17 15:23:51;;;;;;;16.83;15.60;;;14.50;99.90;;;;;;4926150;29;20586;-77
2023/04/17 15:26:16;;;;;;;15.97;14.87;;;14.30;99.90;;;;;;4909921;29;20230;-77
2023/04/17 15:28:42;;;;;;;12.00;11.30;;;14.10;99.90;;;;;;4901812;29;20217;-78
2023/04/17 15:31:08;;;;;;;13.87;12.97;;;14.20;99.90;;;;;;4918017;29;20183;-77
2023/04/17 15:33:36;;;;;;;17.93;16.83;;;14.10;99.90;;;;;;4918396;29;20277;-77
2023/04/17 15:36:01;;;;;;;8.20;7.60;;;14.00;99.90;;;;;;4921280;29;20671;-77